sensor_id;sensor_type;location;lat;lon;timestamp;P1;durP1;ratioP1;P2;durP2;ratioP2
52692;SDS011;68218;51.012;-1.648;2024-03-07T00:02:09;54.55;;;28.65;;
52692;SDS011;68218;51.012;-1.648;2024-03-07T00:04:35;55.15;;;28.35;;
52692;SDS011;68218;51.012;-1.648;2024-03-07T00:07:01;54.70;;;29.98;;
52692;SDS011;68218;51.012;-1.648;2024-03-07T00:09:28;58.50;;;29.60;;
52692;SDS011;68218;51.012;-1.648;2024-03-07T00:11:54;60.25;;;29.73;;
52692;SDS011;68218;51.012;-1.648;2024-03-07T00:14:19;66.47;;;31.63;;
52692;SDS011;68218;51.012;-1.648;2024-03-07T00:16:46;61.85;;;31.05;;
52692;SDS011;68218;51.012;-1.648;2024-03-07T00:19:11;62.90;;;32.53;;
52692;SDS011;68218;51.012;-1.648;2024-03-07T00:21:39;64.45;;;30.85;;
52692;SDS011;68218;51.012;-1.648;2024-03-07T00:24:05;59.90;;;29.73;;
52692;SDS011;68218;51.012;-1.648;2024-03-07T00:26:30;53.60;;;27.85;;
52692;SDS011;68218;51.012;-1.648;2024-03-07T00:28:56;57.58;;;29.05;;
52692;SDS011;68218;51.012;-1.648;2024-03-07T00:31:21;57.50;;;28.95;;
52692;SDS011;68218;51.012;-1.648;2024-03-07T00:33:46;58.58;;;29.83;;
52692;SDS011;68218;51.012;-1.648;2024-03-07T00:36:12;71.20;;;33.00;;
52692;SDS011;68218;51.012;-1.648;2024-03-07T00:38:37;63.15;;;30.15;;
52692;SDS011;68218;51.012;-1.648;2024-03-07T00:41:02;58.17;;;28.55;;
52692;SDS011;68218;51.012;-1.648;2024-03-07T00:43:28;63.25;;;29.27;;
52692;SDS011;68218;51.012;-1.648;2024-03-07T00:45:53;59.42;;;28.35;;
52692;SDS011;68218;51.012;-1.648;2024-03-07T00:48:19;68.63;;;31.52;;
52692;SDS011;68218;51.012;-1.648;2024-03-07T00:50:44;58.88;;;28.50;;
52692;SDS011;68218;51.012;-1.648;2024-03-07T00:53:10;61.67;;;30.60;;
52692;SDS011;68218;51.012;-1.648;2024-03-07T00:55:35;53.83;;;27.73;;
52692;SDS011;68218;51.012;-1.648;2024-03-07T00:58:01;53.17;;;26.08;;
52692;SDS011;68218;51.012;-1.648;2024-03-07T01:00:27;57.15;;;28.25;;
52692;SDS011;68218;51.012;-1.648;2024-03-07T01:02:53;57.97;;;28.75;;
52692;SDS011;68218;51.012;-1.648;2024-03-07T01:05:18;55.70;;;27.52;;
52692;SDS011;68218;51.012;-1.648;2024-03-07T01:07:44;62.53;;;29.88;;
52692;SDS011;68218;51.012;-1.648;2024-03-07T01:10:12;57.42;;;28.90;;
52692;SDS011;68218;51.012;-1.648;2024-03-07T01:12:39;60.58;;;29.60;;
52692;SDS011;68218;51.012;-1.648;2024-03-07T01:15:04;68.13;;;31.08;;
52692;SDS011;68218;51.012;-1.648;2024-03-07T01:17:30;63.55;;;29.88;;
52692;SDS011;68218;51.012;-1.648;2024-03-07T01:19:57;62.25;;;28.88;;
52692;SDS011;68218;51.012;-1.648;2024-03-07T01:22:23;60.25;;;29.25;;
52692;SDS011;68218;51.012;-1.648;2024-03-07T01:24:49;65.90;;;30.65;;
52692;SDS011;68218;51.012;-1.648;2024-03-07T01:27:15;69.60;;;30.70;;
52692;SDS011;68218;51.012;-1.648;2024-03-07T01:29:41;64.28;;;30.10;;
52692;SDS011;68218;51.012;-1.648;2024-03-07T01:32:06;64.18;;;31.05;;
52692;SDS011;68218;51.012;-1.648;2024-03-07T01:34:32;70.13;;;29.70;;
52692;SDS011;68218;51.012;-1.648;2024-03-07T01:36:57;72.20;;;30.25;;
52692;SDS011;68218;51.012;-1.648;2024-03-07T01:39:22;72.40;;;31.58;;
52692;SDS011;68218;51.012;-1.648;2024-03-07T01:41:48;72.63;;;30.73;;
52692;SDS011;68218;51.012;-1.648;2024-03-07T01:44:13;64.60;;;30.13;;
52692;SDS011;68218;51.012;-1.648;2024-03-07T01:46:39;73.72;;;31.40;;
52692;SDS011;68218;51.012;-1.648;2024-03-07T01:49:06;71.45;;;31.42;;
52692;SDS011;68218;51.012;-1.648;2024-03-07T01:51:32;67.97;;;30.60;;
52692;SDS011;68218;51.012;-1.648;2024-03-07T01:53:58;63.90;;;29.75;;
52692;SDS011;68218;51.012;-1.648;2024-03-07T01:56:24;61.15;;;28.83;;
52692;SDS011;68218;51.012;-1.648;2024-03-07T01:58:49;64.65;;;29.05;;
52692;SDS011;68218;51.012;-1.648;2024-03-07T02:01:18;61.80;;;28.60;;
52692;SDS011;68218;51.012;-1.648;2024-03-07T02:03:44;63.85;;;28.52;;
52692;SDS011;68218;51.012;-1.648;2024-03-07T02:06:09;59.65;;;27.85;;
52692;SDS011;68218;51.012;-1.648;2024-03-07T02:08:35;58.20;;;27.65;;
52692;SDS011;68218;51.012;-1.648;2024-03-07T02:11:01;63.67;;;27.95;;
52692;SDS011;68218;51.012;-1.648;2024-03-07T02:13:26;53.90;;;26.50;;
52692;SDS011;68218;51.012;-1.648;2024-03-07T02:15:52;55.03;;;25.25;;
52692;SDS011;68218;51.012;-1.648;2024-03-07T02:18:18;57.65;;;26.45;;
52692;SDS011;68218;51.012;-1.648;2024-03-07T02:20:45;54.15;;;25.30;;
52692;SDS011;68218;51.012;-1.648;2024-03-07T02:23:11;53.70;;;24.95;;
52692;SDS011;68218;51.012;-1.648;2024-03-07T02:25:36;47.78;;;23.73;;
52692;SDS011;68218;51.012;-1.648;2024-03-07T02:28:03;54.05;;;25.10;;
52692;SDS011;68218;51.012;-1.648;2024-03-07T02:30:31;48.92;;;24.23;;
52692;SDS011;68218;51.012;-1.648;2024-03-07T02:33:00;48.67;;;23.45;;
52692;SDS011;68218;51.012;-1.648;2024-03-07T02:35:34;49.00;;;23.10;;
52692;SDS011;68218;51.012;-1.648;2024-03-07T02:38:01;51.20;;;23.20;;
52692;SDS011;68218;51.012;-1.648;2024-03-07T02:40:28;48.83;;;23.23;;
52692;SDS011;68218;51.012;-1.648;2024-03-07T02:42:54;51.95;;;23.13;;
52692;SDS011;68218;51.012;-1.648;2024-03-07T02:45:19;48.83;;;23.20;;
52692;SDS011;68218;51.012;-1.648;2024-03-07T02:47:44;50.67;;;22.90;;
52692;SDS011;68218;51.012;-1.648;2024-03-07T02:50:10;46.35;;;22.52;;
52692;SDS011;68218;51.012;-1.648;2024-03-07T02:52:36;48.65;;;23.60;;
52692;SDS011;68218;51.012;-1.648;2024-03-07T02:55:01;47.28;;;22.80;;
52692;SDS011;68218;51.012;-1.648;2024-03-07T02:57:29;44.88;;;21.52;;
52692;SDS011;68218;51.012;-1.648;2024-03-07T02:59:55;48.72;;;23.25;;
52692;SDS011;68218;51.012;-1.648;2024-03-07T03:02:21;46.83;;;22.20;;
52692;SDS011;68218;51.012;-1.648;2024-03-07T03:04:47;42.55;;;21.95;;
52692;SDS011;68218;51.012;-1.648;2024-03-07T03:07:12;42.03;;;20.90;;
52692;SDS011;68218;51.012;-1.648;2024-03-07T03:09:38;47.50;;;21.90;;
52692;SDS011;68218;51.012;-1.648;2024-03-07T03:12:08;49.08;;;22.60;;
52692;SDS011;68218;51.012;-1.648;2024-03-07T03:14:33;45.90;;;22.60;;
52692;SDS011;68218;51.012;-1.648;2024-03-07T03:16:59;46.78;;;22.27;;
52692;SDS011;68218;51.012;-1.648;2024-03-07T03:19:25;46.70;;;22.08;;
52692;SDS011;68218;51.012;-1.648;2024-03-07T03:21:51;47.75;;;23.13;;
52692;SDS011;68218;51.012;-1.648;2024-03-07T03:24:17;46.38;;;21.95;;
52692;SDS011;68218;51.012;-1.648;2024-03-07T03:26:42;49.40;;;23.45;;
52692;SDS011;68218;51.012;-1.648;2024-03-07T03:29:07;47.90;;;23.73;;
52692;SDS011;68218;51.012;-1.648;2024-03-07T03:31:34;50.08;;;23.75;;
52692;SDS011;68218;51.012;-1.648;2024-03-07T03:34:00;48.30;;;23.77;;
52692;SDS011;68218;51.012;-1.648;2024-03-07T03:36:26;51.58;;;23.98;;
52692;SDS011;68218;51.012;-1.648;2024-03-07T03:38:51;55.55;;;25.23;;
52692;SDS011;68218;51.012;-1.648;2024-03-07T03:41:17;51.17;;;24.63;;
52692;SDS011;68218;51.012;-1.648;2024-03-07T03:43:43;50.55;;;24.55;;
52692;SDS011;68218;51.012;-1.648;2024-03-07T03:46:09;56.67;;;24.23;;
52692;SDS011;68218;51.012;-1.648;2024-03-07T03:48:36;53.47;;;24.25;;
52692;SDS011;68218;51.012;-1.648;2024-03-07T03:51:02;51.08;;;24.38;;
52692;SDS011;68218;51.012;-1.648;2024-03-07T03:53:28;57.40;;;25.55;;
52692;SDS011;68218;51.012;-1.648;2024-03-07T03:55:53;54.53;;;26.10;;
52692;SDS011;68218;51.012;-1.648;2024-03-07T03:58:18;55.53;;;25.13;;
52692;SDS011;68218;51.012;-1.648;2024-03-07T04:00:43;54.92;;;25.45;;
52692;SDS011;68218;51.012;-1.648;2024-03-07T04:03:09;54.47;;;25.42;;
52692;SDS011;68218;51.012;-1.648;2024-03-07T04:05:34;57.28;;;25.58;;
52692;SDS011;68218;51.012;-1.648;2024-03-07T04:07:59;59.47;;;25.58;;
52692;SDS011;68218;51.012;-1.648;2024-03-07T04:10:25;55.13;;;25.58;;
52692;SDS011;68218;51.012;-1.648;2024-03-07T04:12:50;53.33;;;25.85;;
52692;SDS011;68218;51.012;-1.648;2024-03-07T04:15:16;57.97;;;25.85;;
52692;SDS011;68218;51.012;-1.648;2024-03-07T04:17:41;54.95;;;26.23;;
52692;SDS011;68218;51.012;-1.648;2024-03-07T04:20:07;56.78;;;25.92;;
52692;SDS011;68218;51.012;-1.648;2024-03-07T04:22:35;56.13;;;27.35;;
52692;SDS011;68218;51.012;-1.648;2024-03-07T04:25:04;58.05;;;27.52;;
52692;SDS011;68218;51.012;-1.648;2024-03-07T04:27:31;51.40;;;26.35;;
52692;SDS011;68218;51.012;-1.648;2024-03-07T04:29:57;56.40;;;26.00;;
52692;SDS011;68218;51.012;-1.648;2024-03-07T04:32:23;60.83;;;28.42;;
52692;SDS011;68218;51.012;-1.648;2024-03-07T04:34:48;59.05;;;25.58;;
52692;SDS011;68218;51.012;-1.648;2024-03-07T04:37:13;57.92;;;26.88;;
52692;SDS011;68218;51.012;-1.648;2024-03-07T04:39:39;60.83;;;26.88;;
52692;SDS011;68218;51.012;-1.648;2024-03-07T04:42:05;61.90;;;26.73;;
52692;SDS011;68218;51.012;-1.648;2024-03-07T04:44:31;54.90;;;27.55;;
52692;SDS011;68218;51.012;-1.648;2024-03-07T04:47:00;62.50;;;28.02;;
52692;SDS011;68218;51.012;-1.648;2024-03-07T04:49:27;64.53;;;28.60;;
52692;SDS011;68218;51.012;-1.648;2024-03-07T04:51:54;63.55;;;28.60;;
52692;SDS011;68218;51.012;-1.648;2024-03-07T04:54:21;64.00;;;27.65;;
52692;SDS011;68218;51.012;-1.648;2024-03-07T04:56:48;60.42;;;27.92;;
52692;SDS011;68218;51.012;-1.648;2024-03-07T04:59:14;62.75;;;29.35;;
52692;SDS011;68218;51.012;-1.648;2024-03-07T05:01:41;66.70;;;30.58;;
52692;SDS011;68218;51.012;-1.648;2024-03-07T05:04:06;68.03;;;30.58;;
52692;SDS011;68218;51.012;-1.648;2024-03-07T05:06:32;68.50;;;30.00;;
52692;SDS011;68218;51.012;-1.648;2024-03-07T05:08:59;62.67;;;28.98;;
52692;SDS011;68218;51.012;-1.648;2024-03-07T05:11:31;69.43;;;31.58;;
52692;SDS011;68218;51.012;-1.648;2024-03-07T05:13:57;68.40;;;31.00;;
52692;SDS011;68218;51.012;-1.648;2024-03-07T05:16:29;64.90;;;30.27;;
52692;SDS011;68218;51.012;-1.648;2024-03-07T05:18:56;62.92;;;29.75;;
52692;SDS011;68218;51.012;-1.648;2024-03-07T05:21:24;63.20;;;29.23;;
52692;SDS011;68218;51.012;-1.648;2024-03-07T05:24:02;57.22;;;27.73;;
52692;SDS011;68218;51.012;-1.648;2024-03-07T05:26:29;60.13;;;28.20;;
52692;SDS011;68218;51.012;-1.648;2024-03-07T05:28:59;58.05;;;28.30;;
52692;SDS011;68218;51.012;-1.648;2024-03-07T05:31:29;55.47;;;26.70;;
52692;SDS011;68218;51.012;-1.648;2024-03-07T05:33:55;60.40;;;27.88;;
52692;SDS011;68218;51.012;-1.648;2024-03-07T05:36:20;56.78;;;28.88;;
52692;SDS011;68218;51.012;-1.648;2024-03-07T05:38:46;56.50;;;27.67;;
52692;SDS011;68218;51.012;-1.648;2024-03-07T05:41:11;58.92;;;28.20;;
52692;SDS011;68218;51.012;-1.648;2024-03-07T05:43:37;59.53;;;29.75;;
52692;SDS011;68218;51.012;-1.648;2024-03-07T05:46:03;58.75;;;29.38;;
52692;SDS011;68218;51.012;-1.648;2024-03-07T05:48:31;61.42;;;29.27;;
52692;SDS011;68218;51.012;-1.648;2024-03-07T05:50:56;58.55;;;28.90;;
52692;SDS011;68218;51.012;-1.648;2024-03-07T05:53:22;64.20;;;31.00;;
52692;SDS011;68218;51.012;-1.648;2024-03-07T05:55:47;63.92;;;30.02;;
52692;SDS011;68218;51.012;-1.648;2024-03-07T05:58:13;63.95;;;30.40;;
52692;SDS011;68218;51.012;-1.648;2024-03-07T06:00:38;69.32;;;31.55;;
52692;SDS011;68218;51.012;-1.648;2024-03-07T06:03:05;65.15;;;31.58;;
52692;SDS011;68218;51.012;-1.648;2024-03-07T06:05:30;64.13;;;31.38;;
52692;SDS011;68218;51.012;-1.648;2024-03-07T06:07:56;70.70;;;31.85;;
52692;SDS011;68218;51.012;-1.648;2024-03-07T06:10:22;70.53;;;31.45;;
52692;SDS011;68218;51.012;-1.648;2024-03-07T06:12:50;81.97;;;34.65;;
52692;SDS011;68218;51.012;-1.648;2024-03-07T06:15:19;72.75;;;33.22;;
52692;SDS011;68218;51.012;-1.648;2024-03-07T06:17:45;73.70;;;32.42;;
52692;SDS011;68218;51.012;-1.648;2024-03-07T06:20:12;86.55;;;36.00;;
52692;SDS011;68218;51.012;-1.648;2024-03-07T06:22:48;80.80;;;34.22;;
52692;SDS011;68218;51.012;-1.648;2024-03-07T06:25:17;82.68;;;35.33;;
52692;SDS011;68218;51.012;-1.648;2024-03-07T06:27:59;85.35;;;34.33;;
52692;SDS011;68218;51.012;-1.648;2024-03-07T06:30:33;86.72;;;34.88;;
52692;SDS011;68218;51.012;-1.648;2024-03-07T06:32:59;94.03;;;36.00;;
52692;SDS011;68218;51.012;-1.648;2024-03-07T06:35:24;95.80;;;36.78;;
52692;SDS011;68218;51.012;-1.648;2024-03-07T06:37:50;87.85;;;35.38;;
52692;SDS011;68218;51.012;-1.648;2024-03-07T06:40:15;99.75;;;38.03;;
52692;SDS011;68218;51.012;-1.648;2024-03-07T06:42:46;96.05;;;36.70;;
52692;SDS011;68218;51.012;-1.648;2024-03-07T06:45:11;100.32;;;37.05;;
52692;SDS011;68218;51.012;-1.648;2024-03-07T06:47:37;99.22;;;36.42;;
52692;SDS011;68218;51.012;-1.648;2024-03-07T06:50:02;102.30;;;37.25;;
52692;SDS011;68218;51.012;-1.648;2024-03-07T06:52:28;97.05;;;36.05;;
52692;SDS011;68218;51.012;-1.648;2024-03-07T06:54:53;104.07;;;37.45;;
52692;SDS011;68218;51.012;-1.648;2024-03-07T06:57:18;94.68;;;35.70;;
52692;SDS011;68218;51.012;-1.648;2024-03-07T06:59:44;97.32;;;35.75;;
52692;SDS011;68218;51.012;-1.648;2024-03-07T07:02:09;104.00;;;36.58;;
52692;SDS011;68218;51.012;-1.648;2024-03-07T07:04:35;99.10;;;35.92;;
52692;SDS011;68218;51.012;-1.648;2024-03-07T07:07:09;93.18;;;35.17;;
52692;SDS011;68218;51.012;-1.648;2024-03-07T07:09:37;91.18;;;34.22;;
52692;SDS011;68218;51.012;-1.648;2024-03-07T07:12:03;101.40;;;36.08;;
52692;SDS011;68218;51.012;-1.648;2024-03-07T07:14:29;96.50;;;35.15;;
52692;SDS011;68218;51.012;-1.648;2024-03-07T07:16:54;102.55;;;35.30;;
52692;SDS011;68218;51.012;-1.648;2024-03-07T07:19:21;101.28;;;34.85;;
52692;SDS011;68218;51.012;-1.648;2024-03-07T07:21:47;98.50;;;35.42;;
52692;SDS011;68218;51.012;-1.648;2024-03-07T07:24:14;95.47;;;34.38;;
52692;SDS011;68218;51.012;-1.648;2024-03-07T07:26:40;93.57;;;34.10;;
52692;SDS011;68218;51.012;-1.648;2024-03-07T07:29:05;92.55;;;32.95;;
52692;SDS011;68218;51.012;-1.648;2024-03-07T07:31:31;84.45;;;32.70;;
52692;SDS011;68218;51.012;-1.648;2024-03-07T07:33:57;98.97;;;33.03;;
52692;SDS011;68218;51.012;-1.648;2024-03-07T07:36:22;81.43;;;30.42;;
52692;SDS011;68218;51.012;-1.648;2024-03-07T07:38:48;83.13;;;30.73;;
52692;SDS011;68218;51.012;-1.648;2024-03-07T07:41:13;78.95;;;30.92;;
52692;SDS011;68218;51.012;-1.648;2024-03-07T07:43:39;82.43;;;30.27;;
52692;SDS011;68218;51.012;-1.648;2024-03-07T07:46:05;81.07;;;30.35;;
52692;SDS011;68218;51.012;-1.648;2024-03-07T07:48:31;77.57;;;30.25;;
52692;SDS011;68218;51.012;-1.648;2024-03-07T07:50:56;74.05;;;28.75;;
52692;SDS011;68218;51.012;-1.648;2024-03-07T07:53:21;72.78;;;28.90;;
52692;SDS011;68218;51.012;-1.648;2024-03-07T07:55:46;71.85;;;28.05;;
52692;SDS011;68218;51.012;-1.648;2024-03-07T07:58:13;72.82;;;27.95;;
52692;SDS011;68218;51.012;-1.648;2024-03-07T08:00:39;71.57;;;29.20;;
52692;SDS011;68218;51.012;-1.648;2024-03-07T08:03:08;69.82;;;28.38;;
52692;SDS011;68218;51.012;-1.648;2024-03-07T08:05:34;66.07;;;28.58;;
52692;SDS011;68218;51.012;-1.648;2024-03-07T08:08:02;67.93;;;27.65;;
52692;SDS011;68218;51.012;-1.648;2024-03-07T08:10:36;72.53;;;27.58;;
52692;SDS011;68218;51.012;-1.648;2024-03-07T08:13:03;64.15;;;26.15;;
52692;SDS011;68218;51.012;-1.648;2024-03-07T08:15:31;69.90;;;27.85;;
52692;SDS011;68218;51.012;-1.648;2024-03-07T08:17:56;67.28;;;26.27;;
52692;SDS011;68218;51.012;-1.648;2024-03-07T08:20:24;59.78;;;26.55;;
52692;SDS011;68218;51.012;-1.648;2024-03-07T08:22:51;58.70;;;25.25;;
52692;SDS011;68218;51.012;-1.648;2024-03-07T08:25:17;62.95;;;25.05;;
52692;SDS011;68218;51.012;-1.648;2024-03-07T08:27:45;58.53;;;23.83;;
52692;SDS011;68218;51.012;-1.648;2024-03-07T08:30:11;58.63;;;24.17;;
52692;SDS011;68218;51.012;-1.648;2024-03-07T08:32:40;61.17;;;25.38;;
52692;SDS011;68218;51.012;-1.648;2024-03-07T08:35:06;60.35;;;24.40;;
52692;SDS011;68218;51.012;-1.648;2024-03-07T08:40:07;55.03;;;23.52;;
52692;SDS011;68218;51.012;-1.648;2024-03-07T08:42:37;51.15;;;22.60;;
52692;SDS011;68218;51.012;-1.648;2024-03-07T08:45:04;49.95;;;22.95;;
52692;SDS011;68218;51.012;-1.648;2024-03-07T08:47:34;48.65;;;21.45;;
52692;SDS011;68218;51.012;-1.648;2024-03-07T08:50:00;46.72;;;20.95;;
52692;SDS011;68218;51.012;-1.648;2024-03-07T08:52:26;48.67;;;21.95;;
52692;SDS011;68218;51.012;-1.648;2024-03-07T08:54:53;45.67;;;21.23;;
52692;SDS011;68218;51.012;-1.648;2024-03-07T08:57:18;45.13;;;20.50;;
52692;SDS011;68218;51.012;-1.648;2024-03-07T08:59:44;41.78;;;19.85;;
52692;SDS011;68218;51.012;-1.648;2024-03-07T09:02:10;44.03;;;19.92;;
52692;SDS011;68218;51.012;-1.648;2024-03-07T09:04:39;43.70;;;20.13;;
52692;SDS011;68218;51.012;-1.648;2024-03-07T09:07:07;45.45;;;20.25;;
52692;SDS011;68218;51.012;-1.648;2024-03-07T09:09:33;43.03;;;20.63;;
52692;SDS011;68218;51.012;-1.648;2024-03-07T09:12:00;39.65;;;19.38;;
52692;SDS011;68218;51.012;-1.648;2024-03-07T09:14:28;38.22;;;18.90;;
52692;SDS011;68218;51.012;-1.648;2024-03-07T09:16:54;44.58;;;19.08;;
52692;SDS011;68218;51.012;-1.648;2024-03-07T09:19:20;38.65;;;18.83;;
52692;SDS011;68218;51.012;-1.648;2024-03-07T09:21:48;40.20;;;18.70;;
52692;SDS011;68218;51.012;-1.648;2024-03-07T09:24:15;41.38;;;18.50;;
52692;SDS011;68218;51.012;-1.648;2024-03-07T09:26:41;36.42;;;17.42;;
52692;SDS011;68218;51.012;-1.648;2024-03-07T09:29:06;41.78;;;19.33;;
52692;SDS011;68218;51.012;-1.648;2024-03-07T09:31:32;37.83;;;17.73;;
52692;SDS011;68218;51.012;-1.648;2024-03-07T09:33:58;40.67;;;17.65;;
52692;SDS011;68218;51.012;-1.648;2024-03-07T09:36:23;35.95;;;17.58;;
52692;SDS011;68218;51.012;-1.648;2024-03-07T09:38:49;33.42;;;16.80;;
52692;SDS011;68218;51.012;-1.648;2024-03-07T09:41:14;32.90;;;16.40;;
52692;SDS011;68218;51.012;-1.648;2024-03-07T09:43:41;31.92;;;15.65;;
52692;SDS011;68218;51.012;-1.648;2024-03-07T09:46:11;33.95;;;15.07;;
52692;SDS011;68218;51.012;-1.648;2024-03-07T09:48:37;30.77;;;15.82;;
52692;SDS011;68218;51.012;-1.648;2024-03-07T09:51:03;31.90;;;15.25;;
52692;SDS011;68218;51.012;-1.648;2024-03-07T09:53:30;30.65;;;14.70;;
52692;SDS011;68218;51.012;-1.648;2024-03-07T09:55:55;30.55;;;14.48;;
52692;SDS011;68218;51.012;-1.648;2024-03-07T09:58:22;29.02;;;14.13;;
52692;SDS011;68218;51.012;-1.648;2024-03-07T10:00:50;29.20;;;14.30;;
52692;SDS011;68218;51.012;-1.648;2024-03-07T10:03:19;29.20;;;14.45;;
52692;SDS011;68218;51.012;-1.648;2024-03-07T10:05:47;30.35;;;13.93;;
52692;SDS011;68218;51.012;-1.648;2024-03-07T10:08:12;29.15;;;14.13;;
52692;SDS011;68218;51.012;-1.648;2024-03-07T10:10:38;29.63;;;14.25;;
52692;SDS011;68218;51.012;-1.648;2024-03-07T10:13:04;31.65;;;14.75;;
52692;SDS011;68218;51.012;-1.648;2024-03-07T10:15:31;28.67;;;14.02;;
52692;SDS011;68218;51.012;-1.648;2024-03-07T10:17:58;23.88;;;13.32;;
52692;SDS011;68218;51.012;-1.648;2024-03-07T10:20:23;28.25;;;13.73;;
52692;SDS011;68218;51.012;-1.648;2024-03-07T10:22:49;25.17;;;13.70;;
52692;SDS011;68218;51.012;-1.648;2024-03-07T10:25:18;26.02;;;13.43;;
52692;SDS011;68218;51.012;-1.648;2024-03-07T10:27:45;26.20;;;13.88;;
52692;SDS011;68218;51.012;-1.648;2024-03-07T10:30:13;26.80;;;12.52;;
52692;SDS011;68218;51.012;-1.648;2024-03-07T10:32:45;23.98;;;12.38;;
52692;SDS011;68218;51.012;-1.648;2024-03-07T10:35:11;23.83;;;12.15;;
52692;SDS011;68218;51.012;-1.648;2024-03-07T10:37:39;27.67;;;12.95;;
52692;SDS011;68218;51.012;-1.648;2024-03-07T10:40:05;27.88;;;12.90;;
52692;SDS011;68218;51.012;-1.648;2024-03-07T10:42:40;27.08;;;12.88;;
52692;SDS011;68218;51.012;-1.648;2024-03-07T10:45:11;26.67;;;12.52;;
52692;SDS011;68218;51.012;-1.648;2024-03-07T10:47:41;28.27;;;12.98;;
52692;SDS011;68218;51.012;-1.648;2024-03-07T10:50:17;31.92;;;12.10;;
52692;SDS011;68218;51.012;-1.648;2024-03-07T10:52:54;23.80;;;11.85;;
52692;SDS011;68218;51.012;-1.648;2024-03-07T11:00:58;11.05;;;5.55;;
52692;SDS011;68218;51.012;-1.648;2024-03-07T11:03:25;12.35;;;5.97;;
52692;SDS011;68218;51.012;-1.648;2024-03-07T11:05:52;11.80;;;6.50;;
52692;SDS011;68218;51.012;-1.648;2024-03-07T11:08:17;9.27;;;5.40;;
52692;SDS011;68218;51.012;-1.648;2024-03-07T11:10:44;12.75;;;5.72;;
52692;SDS011;68218;51.012;-1.648;2024-03-07T11:13:12;11.55;;;5.97;;
52692;SDS011;68218;51.012;-1.648;2024-03-07T11:15:41;13.95;;;6.30;;
52692;SDS011;68218;51.012;-1.648;2024-03-07T11:18:09;15.65;;;6.45;;
52692;SDS011;68218;51.012;-1.648;2024-03-07T11:20:38;15.60;;;6.78;;
52692;SDS011;68218;51.012;-1.648;2024-03-07T11:26:01;11.40;;;5.72;;
52692;SDS011;68218;51.012;-1.648;2024-03-07T11:28:30;11.52;;;5.65;;
52692;SDS011;68218;51.012;-1.648;2024-03-07T11:31:06;15.75;;;5.55;;
52692;SDS011;68218;51.012;-1.648;2024-03-07T11:33:39;10.40;;;5.00;;
52692;SDS011;68218;51.012;-1.648;2024-03-07T11:36:08;10.30;;;5.15;;
52692;SDS011;68218;51.012;-1.648;2024-03-07T11:38:36;9.95;;;4.38;;
52692;SDS011;68218;51.012;-1.648;2024-03-07T11:41:02;8.70;;;4.53;;
52692;SDS011;68218;51.012;-1.648;2024-03-07T11:43:30;10.32;;;4.20;;
52692;SDS011;68218;51.012;-1.648;2024-03-07T11:45:59;11.82;;;4.82;;
52692;SDS011;68218;51.012;-1.648;2024-03-07T11:48:24;9.27;;;4.28;;
52692;SDS011;68218;51.012;-1.648;2024-03-07T11:50:50;9.70;;;4.68;;
52692;SDS011;68218;51.012;-1.648;2024-03-07T11:53:16;7.25;;;3.47;;
52692;SDS011;68218;51.012;-1.648;2024-03-07T11:55:42;7.50;;;3.63;;
52692;SDS011;68218;51.012;-1.648;2024-03-07T11:58:11;12.35;;;3.78;;
52692;SDS011;68218;51.012;-1.648;2024-03-07T12:00:41;6.47;;;3.15;;
52692;SDS011;68218;51.012;-1.648;2024-03-07T12:03:10;6.80;;;3.50;;
52692;SDS011;68218;51.012;-1.648;2024-03-07T12:05:50;10.40;;;3.97;;
52692;SDS011;68218;51.012;-1.648;2024-03-07T12:08:18;6.80;;;3.55;;
52692;SDS011;68218;51.012;-1.648;2024-03-07T12:10:47;9.77;;;3.60;;
52692;SDS011;68218;51.012;-1.648;2024-03-07T12:13:17;6.72;;;3.10;;
52692;SDS011;68218;51.012;-1.648;2024-03-07T12:15:44;9.68;;;3.47;;
52692;SDS011;68218;51.012;-1.648;2024-03-07T12:18:09;9.95;;;3.45;;
52692;SDS011;68218;51.012;-1.648;2024-03-07T12:20:39;7.95;;;3.40;;
52692;SDS011;68218;51.012;-1.648;2024-03-07T12:23:06;8.73;;;3.40;;
52692;SDS011;68218;51.012;-1.648;2024-03-07T12:25:34;10.10;;;3.38;;
52692;SDS011;68218;51.012;-1.648;2024-03-07T12:28:03;6.25;;;3.05;;
52692;SDS011;68218;51.012;-1.648;2024-03-07T12:30:54;9.75;;;3.03;;
52692;SDS011;68218;51.012;-1.648;2024-03-07T12:33:21;10.43;;;3.42;;
52692;SDS011;68218;51.012;-1.648;2024-03-07T12:35:50;7.57;;;3.35;;
52692;SDS011;68218;51.012;-1.648;2024-03-07T12:38:17;11.38;;;3.90;;
52692;SDS011;68218;51.012;-1.648;2024-03-07T12:40:43;7.65;;;3.72;;
52692;SDS011;68218;51.012;-1.648;2024-03-07T12:45:47;11.60;;;6.70;;
52692;SDS011;68218;51.012;-1.648;2024-03-07T12:48:13;16.33;;;8.52;;
52692;SDS011;68218;51.012;-1.648;2024-03-07T12:50:39;12.77;;;6.78;;
52692;SDS011;68218;51.012;-1.648;2024-03-07T12:53:05;12.65;;;7.90;;
52692;SDS011;68218;51.012;-1.648;2024-03-07T12:55:36;18.17;;;8.30;;
52692;SDS011;68218;51.012;-1.648;2024-03-07T12:58:06;15.13;;;8.30;;
52692;SDS011;68218;51.012;-1.648;2024-03-07T13:00:32;19.85;;;9.85;;
52692;SDS011;68218;51.012;-1.648;2024-03-07T13:02:58;17.80;;;8.77;;
52692;SDS011;68218;51.012;-1.648;2024-03-07T13:05:24;19.83;;;10.32;;
52692;SDS011;68218;51.012;-1.648;2024-03-07T13:07:51;24.00;;;13.00;;
52692;SDS011;68218;51.012;-1.648;2024-03-07T13:10:17;26.15;;;13.85;;
52692;SDS011;68218;51.012;-1.648;2024-03-07T13:12:45;26.40;;;15.32;;
52692;SDS011;68218;51.012;-1.648;2024-03-07T13:15:13;28.92;;;15.85;;
52692;SDS011;68218;51.012;-1.648;2024-03-07T13:17:42;32.78;;;17.10;;
52692;SDS011;68218;51.012;-1.648;2024-03-07T13:20:08;28.13;;;15.98;;
52692;SDS011;68218;51.012;-1.648;2024-03-07T13:22:42;32.60;;;15.93;;
52692;SDS011;68218;51.012;-1.648;2024-03-07T13:25:12;27.73;;;15.30;;
52692;SDS011;68218;51.012;-1.648;2024-03-07T13:27:42;31.08;;;17.35;;
52692;SDS011;68218;51.012;-1.648;2024-03-07T13:30:20;35.47;;;18.55;;
52692;SDS011;68218;51.012;-1.648;2024-03-07T13:32:52;38.70;;;19.98;;
52692;SDS011;68218;51.012;-1.648;2024-03-07T13:35:19;38.28;;;20.35;;
52692;SDS011;68218;51.012;-1.648;2024-03-07T13:37:46;40.47;;;21.17;;
52692;SDS011;68218;51.012;-1.648;2024-03-07T13:40:12;39.80;;;21.52;;
52692;SDS011;68218;51.012;-1.648;2024-03-07T13:42:54;40.45;;;21.60;;
52692;SDS011;68218;51.012;-1.648;2024-03-07T13:45:20;51.90;;;27.08;;
52692;SDS011;68218;51.012;-1.648;2024-03-07T13:47:47;57.22;;;28.83;;
52692;SDS011;68218;51.012;-1.648;2024-03-07T13:50:17;59.78;;;30.80;;
52692;SDS011;68218;51.012;-1.648;2024-03-07T13:52:47;58.75;;;29.90;;
52692;SDS011;68218;51.012;-1.648;2024-03-07T13:55:46;56.72;;;30.40;;
52692;SDS011;68218;51.012;-1.648;2024-03-07T13:58:24;58.97;;;30.40;;
52692;SDS011;68218;51.012;-1.648;2024-03-07T14:09:35;57.03;;;29.27;;
52692;SDS011;68218;51.012;-1.648;2024-03-07T14:15:20;54.13;;;27.88;;
52692;SDS011;68218;51.012;-1.648;2024-03-07T14:32:28;60.38;;;31.98;;
52692;SDS011;68218;51.012;-1.648;2024-03-07T14:34:57;64.35;;;33.03;;
52692;SDS011;68218;51.012;-1.648;2024-03-07T14:37:34;63.88;;;32.90;;
52692;SDS011;68218;51.012;-1.648;2024-03-07T14:40:10;59.30;;;31.83;;
52692;SDS011;68218;51.012;-1.648;2024-03-07T14:42:44;63.53;;;34.38;;
52692;SDS011;68218;51.012;-1.648;2024-03-07T14:45:14;60.38;;;32.88;;
52692;SDS011;68218;51.012;-1.648;2024-03-07T14:47:44;63.63;;;33.60;;
52692;SDS011;68218;51.012;-1.648;2024-03-07T14:50:12;61.88;;;31.90;;
52692;SDS011;68218;51.012;-1.648;2024-03-07T14:52:37;63.20;;;33.03;;